Time;durP1;ratioP1;P1;durP2;ratioP2;P2;SDS_P1;SDS_P2;PMS_P1;PMS_P2;Temp;Humidity;BMP_temperature;BMP_pressure;BME280_temperature;BME280_humidity;BME280_pressure;Samples;Min_cycle;Max_cycle;Signal;HPM_P1;HPM_P2
2021/06/02 00:00:13;;;;;;;8.73;7.13;;;15.20;68.10;;;;;;5921333;23;20033;-94
2021/06/02 00:02:53;;;;;;;8.68;7.40;;;15.00;67.50;;;;;;5926543;23;20418;-94
2021/06/02 00:05:54;;;;;;;;;;;15.00;67.50;;;;;;5851056;23;20040;-94
2021/06/02 00:08:27;;;;;;;8.50;6.63;;;15.00;67.50;;;;;;5846175;24;20296;-94
2021/06/02 00:19:11;;;;;;;8.77;7.05;;;15.00;67.40;;;;;;5826553;24;20025;-94
2021/06/02 00:37:31;;;;;;;7.65;6.00;;;14.60;68.00;;;;;;5914086;22;4614561;-93
2021/06/02 00:40:55;;;;;;;7.70;5.70;;;14.60;68.00;;;;;;5949806;23;20019;-94
2021/06/02 00:43:35;;;;;;;6.82;5.97;;;14.60;68.60;;;;;;6042939;23;20097;-93
2021/06/02 00:47:14;;;;;;;6.80;5.97;;;14.60;68.10;;;;;;6007605;23;20199;-94
2021/06/02 00:49:46;;;;;;;7.60;5.60;;;14.50;68.10;;;;;;5931457;23;20135;-96
2021/06/02 00:52:56;;;;;;;7.45;5.70;;;14.50;67.90;;;;;;5872635;24;20749;-95
2021/06/02 00:55:34;;;;;;;7.70;5.68;;;14.40;68.50;;;;;;5856687;24;20029;-94
2021/06/02 00:58:45;;;;;;;6.35;5.70;;;14.30;67.80;;;;;;5864564;24;20027;-95
2021/06/02 01:27:32;;;;;;;6.50;5.32;;;13.80;68.60;;;;;;5860359;23;20084;-95
2021/06/02 02:33:00;;;;;;;8.43;7.20;;;12.80;76.50;;;;;;5826579;24;20088;-94
2021/06/02 02:36:07;;;;;;;;;;;;;;;;;;;;;
2021/06/02 02:39:19;;;;;;;8.40;7.20;;;12.90;77.90;;;;;;5724148;24;20049;-91
2021/06/02 03:08:16;;;;;;;10.93;8.35;;;12.70;83.40;;;;;;6095918;23;20036;-96
2021/06/02 03:11:21;;;;;;;11.23;8.95;;;12.80;83.00;;;;;;5994840;23;20051;-94
2021/06/02 03:14:25;;;;;;;11.90;8.32;;;12.80;83.10;;;;;;5917327;23;20500;-95
2021/06/02 03:17:21;;;;;;;9.93;7.82;;;12.90;83.30;;;;;;5899471;23;20034;-93
2021/06/02 03:20:08;;;;;;;;;;;;;;;;;;;;;
2021/06/02 04:33:23;;;;;;;15.65;11.38;;;14.10;87.50;;;;;;6205770;22;1335872;-89
2021/06/02 04:35:51;;;;;;;13.13;10.77;;;14.20;87.50;;;;;;6110603;23;21071;-88
2021/06/02 04:38:20;;;;;;;13.82;10.65;;;14.30;87.60;;;;;;6117749;23;20025;-88
2021/06/02 04:40:47;;;;;;;14.43;11.10;;;14.40;87.40;;;;;;6117626;23;20072;-91
2021/06/02 04:43:25;;;;;;;13.98;10.98;;;14.50;87.20;;;;;;6083943;23;20022;-96
2021/06/02 04:46:11;;;;;;;14.70;10.23;;;14.60;86.70;;;;;;6062201;23;20033;-94
2021/06/02 04:52:34;;;;;;;12.18;9.65;;;14.90;86.20;;;;;;6108537;23;20478;-96
2021/06/02 04:55:46;;;;;;;13.48;10.13;;;15.00;85.20;;;;;;6098691;23;20024;-93
2021/06/02 04:58:24;;;;;;;13.13;10.52;;;15.10;85.10;;;;;;6091843;23;20065;-92
2021/06/02 05:01:19;;;;;;;14.80;10.07;;;15.30;84.80;;;;;;6149026;23;20083;-93
2021/06/02 05:04:22;;;;;;;12.73;9.90;;;15.40;84.10;;;;;;6079038;23;20021;-91
2021/06/02 05:07:05;;;;;;;11.52;9.20;;;15.50;83.40;;;;;;6105838;23;20092;-90
2021/06/02 05:10:02;;;;;;;11.38;9.13;;;15.70;82.70;;;;;;6137302;23;20032;-88
2021/06/02 05:13:26;;;;;;;12.90;9.80;;;15.90;81.70;;;;;;5955399;23;20042;-94
2021/06/02 05:16:29;;;;;;;15.75;10.50;;;16.00;81.20;;;;;;5990682;23;20051;-95
2021/06/02 05:19:56;;;;;;;11.30;9.05;;;16.20;80.40;;;;;;5938458;23;20019;-96
2021/06/02 05:23:05;;;;;;;12.20;9.98;;;16.30;79.50;;;;;;5853631;24;20033;-96
2021/06/02 05:41:37;;;;;;;10.07;8.63;;;16.70;76.60;;;;;;5980335;23;20182;-95
2021/06/02 05:44:47;;;;;;;12.48;9.45;;;16.80;76.10;;;;;;5929032;23;20038;-95
2021/06/02 05:47:40;;;;;;;12.07;8.93;;;16.80;75.70;;;;;;6026254;23;20018;-96
2021/06/02 05:50:48;;;;;;;13.02;8.32;;;16.80;75.80;;;;;;6003112;23;20969;-95
2021/06/02 05:54:04;;;;;;;12.35;9.48;;;16.80;73.80;;;;;;5880259;23;20091;-96
2021/06/02 06:03:23;;;;;;;12.73;8.65;;;17.10;74.70;;;;;;5949079;23;20063;-94
2021/06/02 06:06:31;;;;;;;12.18;8.48;;;17.20;73.40;;;;;;5951756;23;20024;-96
2021/06/02 06:09:55;;;;;;;10.32;9.07;;;17.20;72.90;;;;;;5840621;24;20034;-96
2021/06/02 06:12:46;;;;;;;13.20;9.00;;;17.20;73.20;;;;;;5960651;23;20106;-96
2021/06/02 06:15:38;;;;;;;9.93;8.73;;;17.10;72.70;;;;;;5988191;23;20110;-96
2021/06/02 06:18:26;;;;;;;11.18;9.20;;;17.10;73.70;;;;;;5965388;23;20409;-95
2021/06/02 06:21:41;;;;;;;9.45;7.82;;;17.30;73.20;;;;;;6003785;23;20026;-96
2021/06/02 06:25:00;;;;;;;10.00;8.45;;;17.50;72.40;;;;;;6061702;23;20032;-94
2021/06/02 06:27:57;;;;;;;10.10;7.97;;;17.60;72.10;;;;;;5941381;23;20357;-94
2021/06/02 06:33:55;;;;;;;9.95;8.48;;;17.80;70.50;;;;;;5898956;23;20420;-95
2021/06/02 06:36:26;;;;;;;10.90;8.90;;;17.80;71.20;;;;;;5928514;23;20032;-95
2021/06/02 06:39:02;;;;;;;10.27;8.20;;;17.80;71.50;;;;;;5890751;23;20032;-94
2021/06/02 06:41:34;;;;;;;13.27;8.80;;;17.90;70.50;;;;;;6000516;23;20087;-95
2021/06/02 06:44:05;;;;;;;9.15;7.90;;;17.90;70.70;;;;;;6006861;23;20035;-93
2021/06/02 06:46:35;;;;;;;8.90;7.97;;;17.90;70.00;;;;;;5950713;23;20016;-94
2021/06/02 06:49:02;;;;;;;8.73;7.70;;;18.00;69.70;;;;;;6001623;23;20102;-93
2021/06/02 06:51:52;;;;;;;13.05;8.27;;;18.00;69.90;;;;;;6004008;23;20113;-96
2021/06/02 06:54:25;;;;;;;12.20;9.02;;;18.10;69.20;;;;;;6011848;23;20039;-94
2021/06/02 06:56:54;;;;;;;9.95;8.10;;;18.00;69.70;;;;;;5897435;24;20423;-95
2021/06/02 06:59:35;;;;;;;9.70;8.38;;;18.10;70.10;;;;;;5943645;23;20032;-95
2021/06/02 07:02:05;;;;;;;12.65;8.80;;;18.00;69.90;;;;;;5922090;23;20548;-92
2021/06/02 07:04:43;;;;;;;10.23;8.63;;;18.00;70.10;;;;;;6050909;23;20054;-96
2021/06/02 07:07:23;;;;;;;10.30;8.13;;;18.00;70.30;;;;;;6050803;23;20109;-95
2021/06/02 07:09:52;;;;;;;11.68;7.90;;;18.00;69.80;;;;;;5991806;23;20034;-93
2021/06/02 07:12:28;;;;;;;9.05;7.47;;;18.00;69.30;;;;;;6004252;23;20074;-94
2021/06/02 07:15:04;;;;;;;9.70;7.28;;;18.10;68.30;;;;;;6045781;23;20054;-94
2021/06/02 07:17:38;;;;;;;9.07;7.22;;;18.10;67.60;;;;;;5902690;23;20054;-94
2021/06/02 07:20:09;;;;;;;11.00;7.45;;;18.20;67.70;;;;;;6027603;23;20025;-95
2021/06/02 07:22:48;;;;;;;9.43;7.75;;;18.20;67.60;;;;;;6079922;23;20033;-95
2021/06/02 07:25:31;;;;;;;9.75;7.45;;;18.30;67.80;;;;;;6084309;23;20022;-95
2021/06/02 07:28:35;;;;;;;9.75;7.88;;;18.40;67.40;;;;;;6035647;23;20361;-96
2021/06/02 07:31:05;;;;;;;9.85;8.18;;;18.40;67.00;;;;;;6039635;23;20037;-94
2021/06/02 07:33:31;;;;;;;9.95;7.88;;;18.60;67.10;;;;;;6071379;23;20082;-94
2021/06/02 07:36:01;;;;;;;8.50;7.13;;;18.80;66.90;;;;;;6101980;23;20022;-95
2021/06/02 07:38:27;;;;;;;10.70;7.32;;;19.00;66.90;;;;;;6072169;23;20029;-96
2021/06/02 07:40:56;;;;;;;9.10;7.40;;;19.20;66.00;;;;;;6093691;23;20073;-94
2021/06/02 07:43:28;;;;;;;8.57;7.05;;;19.50;65.50;;;;;;6068615;23;20088;-94
2021/06/02 07:45:57;;;;;;;8.38;7.10;;;19.60;64.70;;;;;;6105449;23;20436;-96
2021/06/02 07:48:23;;;;;;;9.77;7.50;;;19.70;64.20;;;;;;6100619;23;20029;-95
2021/06/02 07:50:49;;;;;;;9.35;7.25;;;19.80;63.60;;;;;;6070219;23;20468;-96
2021/06/02 07:53:17;;;;;;;10.15;7.35;;;20.00;62.20;;;;;;6082105;23;20025;-94
2021/06/02 07:55:43;;;;;;;8.70;6.75;;;20.10;63.00;;;;;;6109462;23;20029;-93
2021/06/02 07:58:12;;;;;;;9.38;7.10;;;20.30;63.10;;;;;;6076508;23;20037;-94
2021/06/02 08:00:43;;;;;;;8.43;6.37;;;20.50;62.60;;;;;;6049090;23;20034;-94
2021/06/02 08:03:09;;;;;;;8.50;6.70;;;20.70;61.80;;;;;;6038169;23;20026;-93
2021/06/02 08:05:37;;;;;;;8.60;5.82;;;20.80;60.80;;;;;;6043080;23;20521;-93
2021/06/02 08:08:09;;;;;;;6.35;4.80;;;21.10;60.40;;;;;;6082414;23;20072;-92
2021/06/02 08:10:47;;;;;;;6.15;4.82;;;21.10;56.90;;;;;;6099361;23;20116;-92
2021/06/02 08:13:14;;;;;;;8.25;4.38;;;21.20;56.10;;;;;;6042564;23;20028;-93
2021/06/02 08:15:42;;;;;;;8.13;4.60;;;21.30;55.10;;;;;;6041267;23;20110;-93
2021/06/02 08:18:17;;;;;;;9.30;5.82;;;21.40;54.40;;;;;;6096255;23;20021;-94
2021/06/02 08:20:51;;;;;;;7.97;5.32;;;21.40;55.60;;;;;;6062502;23;20401;-93
2021/06/02 08:23:19;;;;;;;7.70;5.07;;;21.60;55.30;;;;;;6091842;23;20471;-94
2021/06/02 08:25:47;;;;;;;6.95;5.40;;;21.80;55.30;;;;;;6055429;23;20021;-93
2021/06/02 08:28:13;;;;;;;8.82;5.35;;;21.90;55.20;;;;;;6055854;23;20032;-94
2021/06/02 08:30:40;;;;;;;6.93;5.72;;;22.10;55.50;;;;;;6061718;23;20361;-93
2021/06/02 08:33:08;;;;;;;7.00;5.65;;;22.20;55.00;;;;;;6074390;23;20066;-92
2021/06/02 08:35:37;;;;;;;9.90;5.70;;;22.30;55.00;;;;;;6047738;23;20018;-93
2021/06/02 08:38:03;;;;;;;6.65;5.43;;;22.50;53.90;;;;;;6064143;23;20017;-91
2021/06/02 08:40:29;;;;;;;8.60;6.05;;;22.60;54.00;;;;;;6160099;23;20021;-94
2021/06/02 08:42:58;;;;;;;9.80;5.88;;;22.60;52.90;;;;;;6071958;23;20087;-92
2021/06/02 08:45:27;;;;;;;9.50;6.32;;;22.60;53.00;;;;;;6087813;23;20467;-92
2021/06/02 08:47:55;;;;;;;7.50;6.00;;;22.60;53.80;;;;;;6041633;23;20037;-93
2021/06/02 08:50:22;;;;;;;6.68;5.70;;;22.60;54.40;;;;;;6017882;23;20051;-94
2021/06/02 08:52:49;;;;;;;8.20;5.95;;;22.70;53.30;;;;;;5990057;23;20430;-93
2021/06/02 08:55:18;;;;;;;7.97;6.05;;;22.70;53.00;;;;;;6000078;23;20053;-94
2021/06/02 08:57:48;;;;;;;8.32;6.38;;;22.70;52.20;;;;;;6049558;23;20112;-92
2021/06/02 09:00:21;;;;;;;10.10;6.22;;;22.80;53.10;;;;;;6040623;23;20017;-94
2021/06/02 09:02:53;;;;;;;7.57;5.90;;;22.60;52.00;;;;;;6087161;23;20025;-91
2021/06/02 09:05:20;;;;;;;7.45;5.60;;;22.70;51.70;;;;;;6069730;23;20461;-93
2021/06/02 09:07:51;;;;;;;7.72;5.60;;;22.80;53.40;;;;;;6056500;23;20033;-92
2021/06/02 09:10:19;;;;;;;7.05;6.00;;;23.10;53.00;;;;;;6047095;23;20361;-92
2021/06/02 09:12:58;;;;;;;9.27;5.38;;;23.40;52.20;;;;;;6063245;23;20057;-93
2021/06/02 09:15:36;;;;;;;9.00;5.70;;;23.60;51.00;;;;;;6116117;23;20036;-92
2021/06/02 09:18:06;;;;;;;6.57;5.25;;;23.80;50.30;;;;;;6031026;23;20048;-94
2021/06/02 09:20:48;;;;;;;8.00;5.38;;;23.90;50.40;;;;;;5999687;23;20027;-92
2021/06/02 09:23:40;;;;;;;6.50;5.43;;;24.00;49.20;;;;;;5981469;23;20549;-91
2021/06/02 09:26:14;;;;;;;6.43;5.30;;;24.20;48.80;;;;;;5908806;23;20034;-93
2021/06/02 09:28:52;;;;;;;7.93;5.60;;;24.40;48.50;;;;;;5959403;23;20022;-92
2021/06/02 09:31:21;;;;;;;6.47;5.32;;;24.60;48.50;;;;;;6006102;23;20021;-93
2021/06/02 09:33:48;;;;;;;7.15;5.28;;;24.90;48.20;;;;;;6116063;23;20022;-94
2021/06/02 09:36:32;;;;;;;8.07;5.20;;;25.00;47.50;;;;;;6097100;23;20105;-94
2021/06/02 09:39:02;;;;;;;8.85;6.03;;;24.90;47.30;;;;;;6089704;23;20500;-92
2021/06/02 09:41:37;;;;;;;7.15;5.35;;;24.90;47.70;;;;;;6112499;23;20029;-93
2021/06/02 09:44:35;;;;;;;8.13;5.95;;;25.10;47.60;;;;;;6007171;23;20113;-92
2021/06/02 09:47:23;;;;;;;6.68;5.32;;;25.20;46.50;;;;;;6058686;23;20030;-91
2021/06/02 09:49:59;;;;;;;5.63;4.50;;;25.30;45.80;;;;;;6096579;23;20028;-92
2021/06/02 09:52:46;;;;;;;7.43;4.78;;;25.40;45.20;;;;;;6078020;23;20104;-92
2021/06/02 09:55:25;;;;;;;5.28;4.50;;;25.40;43.90;;;;;;6025797;23;20475;-93
2021/06/02 09:58:09;;;;;;;6.30;4.82;;;25.60;45.10;;;;;;6106407;23;20025;-92
2021/06/02 10:00:55;;;;;;;;;;;;;;;;;;;;;
2021/06/02 10:03:30;;;;;;;4.97;4.32;;;25.70;44.70;;;;;;6031120;23;20546;-92
2021/06/02 10:06:01;;;;;;;5.28;4.78;;;26.00;45.60;;;;;;5987100;23;20084;-93
2021/06/02 10:08:33;;;;;;;7.22;4.40;;;26.30;43.70;;;;;;5996026;23;20050;-91
2021/06/02 10:11:33;;;;;;;5.00;4.50;;;26.40;43.10;;;;;;6011836;23;20025;-91
2021/06/02 10:14:13;;;;;;;5.78;4.50;;;26.50;43.20;;;;;;6044198;23;20029;-92
2021/06/02 10:17:01;;;;;;;7.50;4.53;;;26.50;42.90;;;;;;6023059;23;20426;-94
2021/06/02 10:19:45;;;;;;;7.38;4.38;;;26.50;42.30;;;;;;6002300;23;20027;-94
2021/06/02 10:22:27;;;;;;;6.07;4.55;;;26.40;41.00;;;;;;5926740;23;20043;-94
2021/06/02 10:25:09;;;;;;;6.40;4.25;;;26.50;42.10;;;;;;5864975;23;20024;-93
2021/06/02 10:28:05;;;;;;;6.20;4.90;;;26.60;42.60;;;;;;5955510;23;20028;-94
2021/06/02 10:30:58;;;;;;;5.53;4.63;;;26.30;44.50;;;;;;5900940;23;20036;-92
2021/06/02 10:33:41;;;;;;;6.32;4.88;;;26.50;44.40;;;;;;4943797;27;1434703;-94
2021/06/02 10:36:21;;;;;;;6.05;4.78;;;26.70;45.20;;;;;;4938225;28;20061;-96
2021/06/02 10:38:51;;;;;;;7.30;4.97;;;26.70;43.20;;;;;;4965690;28;20058;-95
2021/06/02 10:41:30;;;;;;;5.78;4.35;;;26.60;42.30;;;;;;4944029;28;20055;-95
2021/06/02 10:44:09;;;;;;;9.38;4.70;;;26.90;42.90;;;;;;4880096;28;20063;-95
2021/06/02 10:49:41;;;;;;;6.05;4.63;;;27.20;41.10;;;;;;4471435;27;15557215;-94
2021/06/02 10:52:35;;;;;;;6.15;4.82;;;27.40;41.80;;;;;;4921894;28;20062;-95
2021/06/02 10:55:40;;;;;;;5.38;4.80;;;27.00;40.30;;;;;;4901518;28;20054;-95
2021/06/02 10:58:15;;;;;;;6.78;4.43;;;27.10;39.90;;;;;;4922064;28;20452;-93
2021/06/02 11:00:48;;;;;;;5.72;4.53;;;27.20;41.60;;;;;;4888133;28;20051;-94
2021/06/02 11:03:26;;;;;;;6.28;4.28;;;27.40;41.10;;;;;;4910272;28;20074;-95
2021/06/02 11:06:18;;;;;;;5.22;4.53;;;27.60;41.00;;;;;;4894515;28;20063;-95
2021/06/02 11:08:55;;;;;;;4.95;4.00;;;27.70;40.10;;;;;;4756799;29;2272610;-96
2021/06/02 11:12:01;;;;;;;5.60;4.30;;;27.80;40.30;;;;;;4976400;27;1400523;-93
2021/06/02 11:14:39;;;;;;;6.05;3.97;;;28.10;39.40;;;;;;5005368;28;20054;-94
2021/06/02 11:17:19;;;;;;;5.25;4.10;;;28.30;39.20;;;;;;4973734;28;20045;-94
2021/06/02 11:19:55;;;;;;;5.47;4.20;;;28.40;39.60;;;;;;4931056;28;20058;-95
2021/06/02 11:22:35;;;;;;;5.93;3.95;;;28.60;40.80;;;;;;4859196;29;20056;-94
2021/06/02 11:25:24;;;;;;;4.80;3.78;;;28.70;39.30;;;;;;4403118;27;18568698;-94
2021/06/02 11:28:01;;;;;;;4.85;4.10;;;28.60;39.80;;;;;;4965900;28;20062;-93
2021/06/02 11:30:34;;;;;;;5.20;4.20;;;28.70;40.70;;;;;;4929527;28;20050;-95
2021/06/02 11:33:31;;;;;;;7.20;4.63;;;28.90;38.70;;;;;;4950673;28;20057;-96
2021/06/02 11:36:15;;;;;;;5.18;3.92;;;29.30;39.60;;;;;;4890449;28;20071;-95
2021/06/02 11:38:48;;;;;;;5.47;4.20;;;29.40;39.40;;;;;;4900341;28;20054;-95
2021/06/02 11:41:33;;;;;;;4.32;3.90;;;29.20;40.30;;;;;;4945132;28;20045;-94
2021/06/02 11:44:17;;;;;;;6.57;4.28;;;28.90;39.30;;;;;;4910772;28;20142;-93
2021/06/02 11:46:49;;;;;;;5.72;4.30;;;29.10;38.90;;;;;;4906264;28;20100;-95
2021/06/02 11:50:10;;;;;;;5.10;4.25;;;29.20;39.20;;;;;;4888128;28;20582;-95
2021/06/02 11:52:47;;;;;;;6.03;4.18;;;29.30;39.20;;;;;;4870822;28;20062;-94
2021/06/02 11:55:26;;;;;;;5.20;3.90;;;29.50;39.50;;;;;;4917188;28;20112;-95
2021/06/02 11:58:03;;;;;;;6.65;4.60;;;29.70;39.20;;;;;;4935508;28;20051;-95
2021/06/02 12:00:36;;;;;;;4.97;4.45;;;29.80;38.70;;;;;;4955517;28;20087;-94
2021/06/02 12:03:16;;;;;;;5.78;4.30;;;30.00;38.30;;;;;;4982433;28;20541;-95
2021/06/02 12:05:52;;;;;;;5.03;4.20;;;30.10;37.90;;;;;;4967618;28;20053;-95
2021/06/02 12:08:22;;;;;;;5.10;3.83;;;30.10;38.30;;;;;;4987527;28;20045;-94
2021/06/02 12:10:58;;;;;;;5.43;4.10;;;30.40;39.00;;;;;;4974463;28;20057;-93
2021/06/02 12:13:31;;;;;;;4.53;4.13;;;30.60;37.50;;;;;;4948827;28;20170;-95
2021/06/02 12:16:14;;;;;;;;;;;;;;;;;;;;;
2021/06/02 12:19:14;;;;;;;4.97;3.90;;;30.60;35.90;;;;;;4926213;28;20081;-94
2021/06/02 12:21:43;;;;;;;4.70;3.83;;;30.50;36.70;;;;;;4934759;28;20055;-94
2021/06/02 12:24:55;;;;;;;5.25;3.83;;;30.40;37.30;;;;;;4934738;28;20188;-94
2021/06/02 12:27:59;;;;;;;4.70;4.20;;;30.20;38.20;;;;;;5008284;27;20507;-94
2021/06/02 12:30:47;;;;;;;4.78;4.07;;;30.40;36.70;;;;;;5048455;28;20059;-95
2021/06/02 12:33:28;;;;;;;4.97;4.30;;;30.80;37.10;;;;;;4960053;28;20049;-94
2021/06/02 12:37:06;;;;;;;6.05;4.60;;;30.80;37.40;;;;;;4876615;28;20047;-92
2021/06/02 12:39:42;;;;;;;6.25;4.38;;;30.50;36.70;;;;;;4852491;28;20089;-95
2021/06/02 12:42:46;;;;;;;5.57;4.28;;;30.60;37.70;;;;;;4895213;29;20066;-95
2021/06/02 12:45:59;;;;;;;4.53;4.13;;;30.90;37.40;;;;;;4861756;29;20116;-94
2021/06/02 12:49:09;;;;;;;;;;;;;;;;;;;;;
2021/06/02 12:52:01;;;;;;;5.55;4.18;;;31.70;37.20;;;;;;4883344;28;20057;-96
2021/06/02 12:54:37;;;;;;;6.28;4.70;;;31.50;35.90;;;;;;4867787;29;20051;-94
2021/06/02 12:57:34;;;;;;;;;;;;;;;;;;;;;
2021/06/02 13:00:52;;;;;;;5.93;4.80;;;30.70;38.40;;;;;;4457177;27;15062664;-96
2021/06/02 13:04:01;;;;;;;7.03;5.15;;;30.80;38.90;;;;;;4927521;28;20050;-93
2021/06/02 13:06:37;;;;;;;5.28;4.70;;;30.90;38.60;;;;;;4858692;29;20090;-95
2021/06/02 13:09:31;;;;;;;6.03;4.85;;;30.60;38.90;;;;;;4898090;28;20079;-91
2021/06/02 13:22:43;;;;;;;5.03;4.55;;;31.00;40.10;;;;;;5942387;22;2152473;-95
2021/06/02 13:25:40;;;;;;;5.20;4.70;;;31.20;38.90;;;;;;6004314;23;20019;-94
2021/06/02 13:28:57;;;;;;;;;;;;;;;;;;;;;
2021/06/02 13:31:52;;;;;;;4.97;4.35;;;30.50;38.90;;;;;;3455193;24;47255068;-94
2021/06/02 13:35:05;;;;;;;6.45;5.07;;;30.00;39.10;;;;;;4528917;27;15069255;-94
2021/06/02 13:38:09;;;;;;;6.75;4.90;;;29.80;40.40;;;;;;4989908;28;20420;-92
2021/06/02 13:40:51;;;;;;;6.75;5.07;;;29.80;39.40;;;;;;5000440;28;20084;-95
2021/06/02 13:47:24;;;;;;;5.93;4.60;;;29.50;39.40;;;;;;4891935;28;20051;-94
2021/06/02 13:49:49;;;;;;;6.82;4.50;;;29.60;41.20;;;;;;4888886;28;20066;-95
2021/06/02 13:52:38;;;;;;;6.78;4.40;;;29.70;40.60;;;;;;4865856;29;20119;-94
2021/06/02 13:55:14;;;;;;;5.55;4.70;;;30.10;41.30;;;;;;4528500;29;7403578;-94
2021/06/02 14:08:41;;;;;;;8.53;5.23;;;30.50;40.50;;;;;;6067400;22;1780001;-96
2021/06/02 14:12:00;;;;;;;5.57;4.85;;;30.10;39.20;;;;;;5941005;23;20801;-95
2021/06/02 14:14:52;;;;;;;7.18;4.70;;;29.90;38.90;;;;;;5865879;23;20091;-96
2021/06/02 14:17:23;;;;;;;6.28;5.07;;;29.70;39.90;;;;;;5875055;24;20549;-95
2021/06/02 14:20:09;;;;;;;7.90;4.45;;;29.80;40.20;;;;;;5894219;23;20028;-95
2021/06/02 14:22:45;;;;;;;8.07;5.03;;;29.90;40.10;;;;;;5916046;23;20032;-96
2021/06/02 14:25:25;;;;;;;6.22;4.80;;;30.10;40.10;;;;;;5884108;23;20053;-95
2021/06/02 14:38:45;;;;;;;6.03;5.43;;;30.20;39.60;;;;;;4691783;27;10129589;-94
2021/06/02 14:41:15;;;;;;;7.45;4.82;;;30.30;39.30;;;;;;4962580;28;20057;-90
2021/06/02 14:43:46;;;;;;;7.03;4.85;;;30.30;39.40;;;;;;4993583;28;20228;-90
2021/06/02 14:46:12;;;;;;;6.03;4.50;;;30.20;39.40;;;;;;4994717;28;20046;-89
2021/06/02 14:48:46;;;;;;;7.88;5.43;;;29.70;40.10;;;;;;4971514;28;20058;-91
2021/06/02 14:51:12;;;;;;;7.13;4.78;;;29.50;41.10;;;;;;4979001;28;20050;-90
2021/06/02 14:53:41;;;;;;;7.03;4.25;;;29.30;41.50;;;;;;5005484;28;20051;-90
2021/06/02 14:56:09;;;;;;;7.25;4.75;;;29.00;42.10;;;;;;5027698;28;20064;-91
2021/06/02 14:58:35;;;;;;;5.88;4.88;;;28.70;42.60;;;;;;5009130;28;20061;-90
2021/06/02 15:01:02;;;;;;;8.88;5.00;;;28.30;42.90;;;;;;5019791;28;20073;-91
2021/06/02 15:03:28;;;;;;;6.00;4.45;;;28.30;42.60;;;;;;4990047;28;20126;-91
2021/06/02 15:05:54;;;;;;;5.40;4.28;;;28.20;43.60;;;;;;5019326;28;20410;-89
2021/06/02 15:08:22;;;;;;;7.18;4.47;;;28.20;44.10;;;;;;4994549;28;20044;-91
2021/06/02 15:10:49;;;;;;;7.10;4.80;;;28.30;44.20;;;;;;5028788;28;20092;-89
2021/06/02 15:13:20;;;;;;;5.72;4.40;;;28.10;42.60;;;;;;5039506;28;20098;-90
2021/06/02 15:15:46;;;;;;;6.45;4.40;;;28.00;43.70;;;;;;5036810;28;20053;-89
2021/06/02 15:18:13;;;;;;;6.18;4.60;;;27.90;44.20;;;;;;5022406;28;20124;-91
2021/06/02 15:20:43;;;;;;;6.78;5.13;;;28.00;43.90;;;;;;5027710;28;20052;-91
2021/06/02 15:23:10;;;;;;;6.72;5.00;;;27.80;43.40;;;;;;5018866;28;20060;-91
2021/06/02 15:25:36;;;;;;;7.35;4.60;;;27.80;43.00;;;;;;5015670;28;20053;-91
2021/06/02 15:28:10;;;;;;;7.05;4.80;;;27.70;44.00;;;;;;5034093;28;20309;-92
2021/06/02 15:30:37;;;;;;;5.35;4.80;;;27.80;44.50;;;;;;5048576;28;20178;-91
2021/06/02 15:33:10;;;;;;;8.20;5.00;;;27.70;44.80;;;;;;5049560;28;20470;-91
2021/06/02 15:35:38;;;;;;;5.55;4.60;;;27.70;44.00;;;;;;5055243;28;20072;-92
2021/06/02 15:38:06;;;;;;;8.27;5.05;;;27.50;44.40;;;;;;5030104;28;20056;-91
2021/06/02 15:40:33;;;;;;;5.15;4.50;;;27.40;44.60;;;;;;5020529;28;20083;-91
2021/06/02 15:43:02;;;;;;;7.00;4.35;;;27.40;45.20;;;;;;5028535;28;20501;-91
2021/06/02 15:45:30;;;;;;;5.50;4.72;;;27.60;45.10;;;;;;5035859;28;20763;-90
2021/06/02 15:47:58;;;;;;;7.53;5.10;;;27.60;44.70;;;;;;5006129;28;20058;-91
2021/06/02 15:50:28;;;;;;;6.45;4.97;;;27.80;44.50;;;;;;5030291;28;20073;-91
2021/06/02 15:52:56;;;;;;;6.97;5.38;;;28.00;43.70;;;;;;5006295;28;20534;-95
2021/06/02 15:55:27;;;;;;;8.48;4.68;;;28.30;43.10;;;;;;4970470;28;20140;-95
2021/06/02 15:58:00;;;;;;;8.23;4.93;;;28.50;42.30;;;;;;4986789;28;20104;-95
2021/06/02 16:00:29;;;;;;;6.80;5.00;;;28.70;42.10;;;;;;5017282;28;20136;-95
2021/06/02 16:02:57;;;;;;;9.00;4.88;;;28.70;42.40;;;;;;4989398;28;20316;-94
2021/06/02 16:05:32;;;;;;;8.10;4.85;;;28.80;42.30;;;;;;4990450;28;20059;-96
2021/06/02 16:07:58;;;;;;;7.47;4.68;;;28.80;41.70;;;;;;5038537;28;20053;-93
2021/06/02 16:10:24;;;;;;;5.85;4.78;;;29.00;41.90;;;;;;5042940;28;20049;-93
2021/06/02 16:12:56;;;;;;;6.85;4.70;;;29.10;42.00;;;;;;5030468;28;20140;-93
2021/06/02 16:15:23;;;;;;;5.07;4.57;;;29.30;42.10;;;;;;5028379;28;20103;-93
2021/06/02 16:17:50;;;;;;;6.18;4.63;;;29.40;41.40;;;;;;5029067;28;20141;-92
2021/06/02 16:20:18;;;;;;;7.85;4.80;;;29.40;41.60;;;;;;5031339;28;20475;-92
2021/06/02 16:22:44;;;;;;;8.43;4.50;;;29.00;41.50;;;;;;5032561;28;20140;-92
2021/06/02 16:25:11;;;;;;;7.45;4.07;;;29.20;43.80;;;;;;5014627;28;20586;-93
2021/06/02 16:27:38;;;;;;;6.35;4.10;;;29.00;45.70;;;;;;5015046;28;20041;-92
2021/06/02 16:30:07;;;;;;;6.95;4.03;;;29.00;46.90;;;;;;5028433;28;20049;-94
2021/06/02 16:32:35;;;;;;;8.63;4.35;;;28.80;47.00;;;;;;5028267;28;20048;-93
2021/06/02 16:35:05;;;;;;;5.80;4.20;;;28.60;47.80;;;;;;5034851;28;20050;-92
2021/06/02 16:37:31;;;;;;;6.38;4.50;;;28.50;47.70;;;;;;5047483;28;20471;-92
2021/06/02 16:40:03;;;;;;;5.65;4.32;;;28.00;48.10;;;;;;5028977;28;20059;-93
2021/06/02 16:42:30;;;;;;;6.70;4.63;;;27.80;48.30;;;;;;5014100;28;20488;-92
2021/06/02 16:44:57;;;;;;;6.22;4.05;;;27.60;48.20;;;;;;5009421;28;20049;-92
2021/06/02 16:47:24;;;;;;;5.97;4.10;;;27.70;48.90;;;;;;5002647;28;20427;-91
2021/06/02 16:49:50;;;;;;;8.15;4.75;;;27.90;48.80;;;;;;5024179;28;20041;-93
2021/06/02 16:52:16;;;;;;;8.93;4.13;;;27.90;48.60;;;;;;5030172;28;20056;-92
2021/06/02 16:54:47;;;;;;;7.75;4.50;;;28.10;48.80;;;;;;5029982;28;20136;-92
2021/06/02 16:57:14;;;;;;;7.47;4.40;;;28.20;47.80;;;;;;5028653;28;20058;-92
2021/06/02 16:59:42;;;;;;;6.65;4.40;;;28.10;46.90;;;;;;5030287;28;20116;-92
2021/06/02 17:02:11;;;;;;;6.90;4.22;;;28.00;47.70;;;;;;5031861;28;20049;-92
2021/06/02 17:04:37;;;;;;;7.35;4.20;;;27.70;48.60;;;;;;5035288;28;20068;-92
2021/06/02 17:07:06;;;;;;;6.20;3.88;;;27.60;49.50;;;;;;5033473;28;20069;-90
2021/06/02 17:09:33;;;;;;;7.30;4.50;;;27.60;50.20;;;;;;5028428;28;20067;-89
2021/06/02 17:11:59;;;;;;;7.28;4.13;;;27.80;49.80;;;;;;5028892;28;20053;-92
2021/06/02 17:14:25;;;;;;;9.98;4.32;;;27.80;49.40;;;;;;5025691;28;20049;-92
2021/06/02 17:16:53;;;;;;;7.18;4.25;;;27.60;50.10;;;;;;5036631;28;20037;-92
2021/06/02 17:19:23;;;;;;;6.63;4.40;;;27.60;49.80;;;;;;5029622;28;20140;-94
2021/06/02 17:21:53;;;;;;;9.52;4.50;;;27.80;49.40;;;;;;5024153;28;20487;-93
2021/06/02 17:24:21;;;;;;;9.75;4.72;;;27.80;49.20;;;;;;5022710;28;20079;-92
2021/06/02 17:26:52;;;;;;;6.47;4.20;;;27.90;48.30;;;;;;5028963;28;20483;-91
2021/06/02 17:29:34;;;;;;;7.88;4.88;;;27.70;48.90;;;;;;5042528;28;20128;-92
2021/06/02 17:31:59;;;;;;;7.25;4.82;;;27.50;48.70;;;;;;5039423;28;20433;-92
2021/06/02 17:34:27;;;;;;;5.88;4.13;;;27.10;49.60;;;;;;5031923;28;20046;-93
2021/06/02 17:36:54;;;;;;;5.65;4.43;;;27.20;50.30;;;;;;5028970;28;20049;-93
2021/06/02 17:39:20;;;;;;;6.45;4.38;;;27.20;50.40;;;;;;5022510;28;20057;-93
2021/06/02 17:41:47;;;;;;;7.65;4.43;;;27.00;50.50;;;;;;5028744;28;20053;-93
2021/06/02 17:44:14;;;;;;;7.15;4.28;;;27.20;50.40;;;;;;5030538;28;20067;-93
2021/06/02 17:46:46;;;;;;;6.43;4.13;;;27.20;50.20;;;;;;5010536;28;20045;-92
2021/06/02 17:49:14;;;;;;;8.15;4.65;;;27.50;49.80;;;;;;5029417;28;20045;-93
2021/06/02 17:51:42;;;;;;;8.68;4.97;;;27.50;49.80;;;;;;5041266;28;20041;-93
2021/06/02 17:54:09;;;;;;;6.75;4.38;;;27.50;49.30;;;;;;5010958;28;20471;-92
2021/06/02 17:56:36;;;;;;;9.45;4.80;;;27.40;49.60;;;;;;5023308;28;20471;-92
2021/06/02 17:59:04;;;;;;;8.32;4.63;;;27.00;50.00;;;;;;5031367;28;20053;-89
2021/06/02 18:01:31;;;;;;;6.90;5.10;;;26.80;50.50;;;;;;5028788;28;20054;-91
2021/06/02 18:04:01;;;;;;;7.18;4.55;;;27.00;50.80;;;;;;5003030;28;20159;-94
2021/06/02 18:06:28;;;;;;;10.88;4.93;;;27.10;50.60;;;;;;5011303;28;20044;-96
2021/06/02 18:08:56;;;;;;;7.30;4.88;;;26.70;50.70;;;;;;4987796;28;20096;-95
2021/06/02 18:11:24;;;;;;;8.38;4.80;;;26.90;50.70;;;;;;5005232;28;20215;-94
2021/06/02 18:13:50;;;;;;;11.90;4.97;;;27.00;50.70;;;;;;5026413;28;20129;-94
2021/06/02 18:16:39;;;;;;;7.97;4.72;;;27.20;50.30;;;;;;4979228;28;20504;-94
2021/06/02 18:19:10;;;;;;;6.40;4.88;;;27.10;50.30;;;;;;4998025;28;20057;-91
2021/06/02 18:21:56;;;;;;;10.70;5.00;;;26.80;50.30;;;;;;5003853;28;20500;-91
2021/06/02 18:24:23;;;;;;;8.75;4.90;;;27.00;50.40;;;;;;4998412;28;20484;-92
2021/06/02 18:26:55;;;;;;;10.23;5.13;;;26.90;50.10;;;;;;5006298;28;20074;-92
2021/06/02 18:29:28;;;;;;;9.43;4.57;;;27.10;50.00;;;;;;5018009;28;20488;-92
2021/06/02 18:31:54;;;;;;;9.18;5.28;;;27.20;50.20;;;;;;4983249;28;20062;-91